Time;durP1;ratioP1;P1;durP2;ratioP2;P2;SDS_P1;SDS_P2;PMS_P1;PMS_P2;Temp;Humidity;BMP_temperature;BMP_pressure;BME280_temperature;BME280_humidity;BME280_pressure;Samples;Min_cycle;Max_cycle;Signal;HPM_P1;HPM_P2
2021/06/16 00:02:13;;;;;;;8.43;7.60;;;;;;;19.98;75.89;99365.45;1683989;81;21100;-76
2021/06/16 00:04:39;;;;;;;9.73;8.03;;;;;;;19.99;76.01;99369.79;1737174;82;21492;-77
2021/06/16 00:07:06;;;;;;;11.22;9.55;;;;;;;19.92;76.25;99371.37;1740041;81;20977;-79
2021/06/16 00:09:32;;;;;;;8.30;7.42;;;;;;;19.93;76.21;99373.78;1740720;78;20916;-78
2021/06/16 00:11:59;;;;;;;10.45;7.62;;;;;;;19.92;76.34;99377.63;1714399;82;20940;-75
2021/06/16 00:14:27;;;;;;;10.72;7.53;;;;;;;19.96;76.34;99385.98;1740165;82;20951;-74
2021/06/16 00:16:53;;;;;;;8.35;7.47;;;;;;;19.97;76.24;99388.40;1724514;82;21056;-74
2021/06/16 00:19:20;;;;;;;9.03;7.42;;;;;;;19.92;76.38;99397.30;1719664;82;21139;-74
2021/06/16 00:21:46;;;;;;;10.68;8.08;;;;;;;19.85;76.52;99388.80;1711986;82;21030;-77
2021/06/16 00:24:14;;;;;;;8.33;7.55;;;;;;;19.78;76.79;99383.79;1731473;81;21024;-76
2021/06/16 00:26:44;;;;;;;8.83;7.70;;;;;;;19.77;76.87;99383.55;1737274;82;20990;-77
2021/06/16 00:29:10;;;;;;;9.08;8.13;;;;;;;19.74;77.11;99386.11;1758266;81;20967;-74
2021/06/16 00:31:37;;;;;;;9.63;8.78;;;;;;;19.69;77.41;99382.97;1764900;81;22005;-76
2021/06/16 00:34:03;;;;;;;8.03;7.25;;;;;;;19.66;77.75;99367.80;1722635;82;20987;-77
2021/06/16 00:36:31;;;;;;;8.33;7.47;;;;;;;19.58;78.01;99374.27;1766831;81;20976;-78
2021/06/16 00:38:59;;;;;;;8.23;7.17;;;;;;;19.54;78.39;99361.58;1766607;81;20979;-77
2021/06/16 00:41:27;;;;;;;8.03;6.90;;;;;;;19.53;78.11;99379.06;1737538;82;21018;-78
2021/06/16 00:43:53;;;;;;;9.68;7.53;;;;;;;19.50;78.63;99376.42;1756691;81;21113;-78
2021/06/16 00:46:20;;;;;;;7.85;6.67;;;;;;;19.50;78.59;99383.80;1715088;81;21050;-78
2021/06/16 00:48:47;;;;;;;7.67;6.55;;;;;;;19.44;79.01;99377.67;1751418;81;20975;-77
2021/06/16 00:51:14;;;;;;;7.95;7.28;;;;;;;19.43;78.94;99374.66;1707394;82;21560;-76
2021/06/16 00:53:40;;;;;;;7.87;6.75;;;;;;;19.44;78.81;99379.59;1742216;81;26748;-76
2021/06/16 00:56:07;;;;;;;13.35;7.55;;;;;;;19.40;78.93;99372.58;1711508;82;21540;-76
2021/06/16 00:58:34;;;;;;;6.08;5.58;;;;;;;19.42;78.80;99380.45;1733907;82;21039;-76
2021/06/16 01:01:09;;;;;;;9.00;7.30;;;;;;;19.40;77.02;99376.67;1708934;81;21682;-76
2021/06/16 01:03:58;;;;;;;7.30;6.60;;;;;;;19.49;77.56;99382.98;1734398;82;20955;-76
2021/06/16 01:06:33;;;;;;;7.00;6.40;;;;;;;19.51;77.68;99390.31;1731669;82;21071;-78
2021/06/16 01:09:20;;;;;;;7.83;7.10;;;;;;;19.49;77.99;99382.18;1698712;83;20972;-76
2021/06/16 01:12:25;;;;;;;7.83;7.15;;;;;;;19.42;78.46;99382.63;1709246;83;21238;-78
2021/06/16 01:14:56;;;;;;;9.63;8.35;;;;;;;19.39;78.39;99387.89;1721325;82;21003;-77
2021/06/16 01:17:40;;;;;;;8.43;7.72;;;;;;;19.38;78.42;99391.17;1702788;84;20983;-75
2021/06/16 01:20:41;;;;;;;11.28;6.80;;;;;;;19.39;78.51;99385.16;1712568;82;21045;-76
2021/06/16 01:23:36;;;;;;;8.20;7.45;;;;;;;19.34;78.56;99383.37;1740680;81;21019;-76
2021/06/16 01:26:21;;;;;;;8.60;7.65;;;;;;;19.33;78.53;99390.53;1762396;81;21477;-78
2021/06/16 01:28:48;;;;;;;8.93;8.03;;;;;;;19.24;78.91;99385.02;1741873;81;20979;-77
2021/06/16 01:31:16;;;;;;;9.03;7.10;;;;;;;19.19;78.90;99390.61;1711026;82;20959;-77
2021/06/16 01:33:43;;;;;;;10.72;8.33;;;;;;;19.13;79.08;99388.60;1697794;83;22193;-77
2021/06/16 01:36:09;;;;;;;8.53;7.83;;;;;;;19.10;79.05;99395.22;1725558;83;20997;-77
2021/06/16 01:38:36;;;;;;;8.83;8.05;;;;;;;19.05;79.35;99392.06;1726589;82;21538;-76
2021/06/16 01:41:03;;;;;;;8.93;8.05;;;;;;;19.08;79.16;99394.74;1708411;81;21012;-77
2021/06/16 01:43:30;;;;;;;7.55;6.85;;;;;;;19.13;78.98;99394.61;1725567;81;21012;-77
2021/06/16 01:45:59;;;;;;;8.40;7.47;;;;;;;19.16;78.91;99398.87;1694421;82;21086;-78
2021/06/16 01:48:25;;;;;;;10.82;9.60;;;;;;;19.20;78.79;99403.12;1706468;82;21899;-77
2021/06/16 01:50:52;;;;;;;10.18;9.18;;;;;;;19.22;78.69;99415.91;1683823;81;21016;-78
2021/06/16 01:53:20;;;;;;;8.50;7.72;;;;;;;19.27;78.68;99411.68;1678048;83;21026;-77
2021/06/16 01:55:50;;;;;;;9.98;8.98;;;;;;;19.29;78.57;99408.61;1703461;83;20943;-76
2021/06/16 01:58:17;;;;;;;8.03;7.33;;;;;;;19.31;78.52;99411.84;1654390;85;21062;-78
2021/06/16 02:00:44;;;;;;;8.78;7.97;;;;;;;19.35;78.40;99410.90;1684738;83;21116;-76
2021/06/16 02:03:11;;;;;;;8.28;7.58;;;;;;;19.42;78.02;99411.27;1683206;84;20982;-76
2021/06/16 02:05:37;;;;;;;9.10;8.10;;;;;;;19.49;77.67;99417.09;1657464;85;21612;-76
2021/06/16 02:08:07;;;;;;;11.88;8.45;;;;;;;19.53;77.31;99418.06;1700676;83;21257;-76
2021/06/16 02:10:37;;;;;;;9.53;8.53;;;;;;;19.56;77.15;99429.73;1684155;83;21353;-77
2021/06/16 02:13:06;;;;;;;9.55;8.75;;;;;;;19.57;77.02;99431.87;1656516;85;21035;-77
2021/06/16 02:15:38;;;;;;;8.18;7.58;;;;;;;19.59;76.84;99436.46;1659732;83;20975;-78
2021/06/16 02:18:05;;;;;;;9.15;8.28;;;;;;;19.54;76.83;99436.05;1720650;82;20967;-77
2021/06/16 02:20:32;;;;;;;9.20;8.38;;;;;;;19.51;76.91;99447.59;1704658;82;21065;-77
2021/06/16 02:22:58;;;;;;;8.38;7.67;;;;;;;19.49;77.02;99448.45;1654778;85;21123;-77
2021/06/16 02:25:26;;;;;;;9.58;8.70;;;;;;;19.50;77.05;99449.27;1675667;85;21089;-77
2021/06/16 02:27:53;;;;;;;8.63;7.90;;;;;;;19.49;77.32;99457.20;1654528;85;21110;-76
2021/06/16 02:30:19;;;;;;;9.78;8.83;;;;;;;19.49;77.47;99463.46;1681104;84;21062;-76
2021/06/16 02:32:46;;;;;;;8.65;7.83;;;;;;;19.51;77.45;99456.34;1684135;84;20987;-76
2021/06/16 02:35:14;;;;;;;9.65;8.43;;;;;;;19.51;77.15;99457.70;1674576;85;21095;-76
2021/06/16 02:37:45;;;;;;;9.18;8.28;;;;;;;19.49;77.06;99464.02;1662595;85;21669;-77
2021/06/16 02:40:13;;;;;;;8.85;7.95;;;;;;;19.50;77.01;99457.45;1644290;84;20947;-78
2021/06/16 02:42:45;;;;;;;8.85;8.00;;;;;;;19.54;76.97;99464.69;1733658;82;20972;-77
2021/06/16 02:45:15;;;;;;;9.00;8.20;;;;;;;19.59;76.84;99467.84;1700023;84;21032;-78
2021/06/16 02:47:44;;;;;;;8.30;7.53;;;;;;;19.65;76.80;99476.69;1703164;84;21575;-77
2021/06/16 02:50:11;;;;;;;8.53;7.83;;;;;;;19.62;76.82;99475.94;1709568;82;21033;-77
2021/06/16 02:52:41;;;;;;;10.68;9.58;;;;;;;19.58;76.90;99473.85;1681735;84;21027;-77
2021/06/16 02:55:10;;;;;;;9.60;8.78;;;;;;;19.55;76.96;99478.58;1702725;84;21087;-77
2021/06/16 02:57:39;;;;;;;10.68;9.13;;;;;;;19.46;77.29;99475.02;1710655;82;20983;-80
2021/06/16 03:00:07;;;;;;;9.50;8.55;;;;;;;19.38;77.65;99472.19;1700870;83;21020;-78
2021/06/16 03:02:34;;;;;;;12.53;8.23;;;;;;;19.38;77.90;99474.91;1721310;83;22009;-78
2021/06/16 03:05:01;;;;;;;10.45;9.55;;;;;;;19.40;78.15;99466.68;1678962;84;22214;-78
2021/06/16 03:07:28;;;;;;;8.93;8.10;;;;;;;19.46;78.18;99467.38;1704264;84;21118;-78
2021/06/16 03:09:55;;;;;;;8.80;8.05;;;;;;;19.44;78.07;99460.87;1703875;82;21090;-79
2021/06/16 03:12:22;;;;;;;9.58;8.75;;;;;;;19.37;78.41;99464.59;1695801;84;20952;-79
2021/06/16 03:14:49;;;;;;;8.80;7.90;;;;;;;19.29;78.49;99461.79;1680762;84;21336;-78
2021/06/16 03:17:15;;;;;;;8.45;7.70;;;;;;;19.24;78.88;99455.91;1684371;83;20979;-79
2021/06/16 03:19:41;;;;;;;8.50;7.75;;;;;;;19.20;78.98;99453.57;1685676;83;21003;-77
2021/06/16 03:22:08;;;;;;;8.80;7.75;;;;;;;19.18;78.47;99453.88;1686770;83;21585;-80
2021/06/16 03:24:35;;;;;;;23.40;9.13;;;;;;;19.21;78.88;99455.19;1677196;83;21591;-79
2021/06/16 03:27:02;;;;;;;11.43;9.48;;;;;;;19.21;79.53;99455.74;1684914;83;21571;-81
2021/06/16 03:29:30;;;;;;;11.10;8.98;;;;;;;19.18;79.13;99449.56;1656140;85;21558;-79
2021/06/16 03:31:56;;;;;;;12.15;10.48;;;;;;;19.18;78.38;99449.56;1709474;83;21070;-83
2021/06/16 03:34:22;;;;;;;16.20;11.20;;;;;;;19.21;78.59;99455.74;1686118;83;20962;-83
2021/06/16 03:36:50;;;;;;;9.90;8.95;;;;;;;19.24;78.39;99460.56;1691656;82;21127;-84
2021/06/16 03:39:16;;;;;;;9.70;8.63;;;;;;;19.31;78.42;99461.74;1732836;82;21803;-84
2021/06/16 03:41:43;;;;;;;10.23;9.33;;;;;;;19.34;77.89;99475.30;1717028;81;21000;-83
2021/06/16 03:44:11;;;;;;;9.78;8.93;;;;;;;19.35;77.72;99469.54;1734716;82;21548;-82
2021/06/16 03:46:39;;;;;;;15.88;9.00;;;;;;;19.35;77.88;99479.09;1714233;82;21059;-84
2021/06/16 03:49:09;;;;;;;8.45;7.65;;;;;;;19.34;78.35;99470.65;1712256;83;20923;-82
2021/06/16 03:51:39;;;;;;;11.00;9.20;;;;;;;19.40;77.94;99475.41;1719522;82;21826;-86
2021/06/16 03:54:11;;;;;;;9.53;8.53;;;;;;;19.47;77.59;99473.87;1767815;81;20908;-84
2021/06/16 03:56:45;;;;;;;9.55;8.65;;;;;;;19.56;77.33;99473.38;1742886;81;21016;-82
2021/06/16 03:59:11;;;;;;;9.48;8.68;;;;;;;19.67;76.91;99484.80;1765433;81;20999;-81
2021/06/16 04:01:39;;;;;;;10.65;8.10;;;;;;;19.75;76.56;99481.88;1731925;82;21011;-82
2021/06/16 04:04:10;;;;;;;7.83;6.72;;;;;;;19.86;76.00;99484.55;1737239;82;21114;-82
2021/06/16 04:06:43;;;;;;;7.72;6.97;;;;;;;19.97;75.40;99483.14;1764816;81;20995;-79
2021/06/16 04:09:14;;;;;;;10.08;7.53;;;;;;;20.06;74.98;99489.98;1768135;81;20982;-80
2021/06/16 04:11:41;;;;;;;9.38;7.03;;;;;;;20.13;74.50;99488.42;1710865;82;21602;-77
2021/06/16 04:14:08;;;;;;;12.25;7.72;;;;;;;20.19;73.90;99493.95;1737455;82;21043;-77
2021/06/16 04:16:35;;;;;;;13.08;6.85;;;;;;;20.22;73.81;99492.53;1712678;82;21126;-78
2021/06/16 04:19:02;;;;;;;18.45;15.35;;;;;;;20.29;73.57;99501.04;1736518;82;21055;-77
2021/06/16 04:21:29;;;;;;;8.35;7.55;;;;;;;20.35;73.20;99508.00;1687743;84;21035;-77
2021/06/16 04:23:55;;;;;;;10.32;7.37;;;;;;;20.40;73.24;99516.05;1706232;84;21579;-77
2021/06/16 04:26:22;;;;;;;7.30;6.35;;;;;;;20.49;72.77;99506.48;1706583;84;21524;-78
2021/06/16 04:28:49;;;;;;;6.42;5.92;;;;;;;20.57;72.31;99512.55;1733834;81;21075;-81
2021/06/16 04:31:15;;;;;;;7.12;6.50;;;;;;;20.66;71.79;99517.45;1754042;81;21027;-81
2021/06/16 04:33:41;;;;;;;6.37;5.78;;;;;;;20.75;71.40;99520.44;1767243;81;21027;-81
2021/06/16 04:36:08;;;;;;;6.72;6.15;;;;;;;20.82;69.91;99516.64;1767690;81;20992;-80
2021/06/16 04:38:35;;;;;;;10.35;6.58;;;;;;;20.83;69.19;99511.98;1767654;81;21110;-78
2021/06/16 04:41:01;;;;;;;11.65;6.55;;;;;;;20.83;69.20;99513.35;1757213;81;21027;-78
2021/06/16 04:43:28;;;;;;;8.10;6.20;;;;;;;20.88;68.99;99512.63;1737247;82;21659;-77
2021/06/16 04:45:54;;;;;;;7.55;6.10;;;;;;;20.88;68.99;99512.63;1712400;82;20984;-77
2021/06/16 04:48:21;;;;;;;6.25;5.70;;;;;;;20.88;68.89;99518.66;1735213;81;20997;-78
2021/06/16 04:50:47;;;;;;;7.15;6.40;;;;;;;20.87;68.95;99517.85;1758247;81;20974;-78
2021/06/16 04:53:14;;;;;;;7.30;6.60;;;;;;;20.93;68.78;99523.97;1736995;82;21121;-77
2021/06/16 04:55:40;;;;;;;9.85;7.50;;;;;;;20.97;68.49;99517.28;1737202;82;20970;-78
2021/06/16 04:58:07;;;;;;;6.97;6.03;;;;;;;20.99;68.45;99525.42;1733104;82;21016;-77
2021/06/16 05:00:33;;;;;;;7.47;5.80;;;;;;;21.01;68.35;99518.24;1689170;81;21017;-78
2021/06/16 05:03:00;;;;;;;8.68;6.22;;;;;;;21.07;68.11;99527.90;1689989;82;21043;-79
2021/06/16 05:05:27;;;;;;;10.78;6.65;;;;;;;21.07;68.20;99522.42;1739614;82;21063;-77
2021/06/16 05:07:53;;;;;;;10.80;6.60;;;;;;;21.09;68.44;99523.73;1723734;81;21005;-79
2021/06/16 05:10:20;;;;;;;7.75;5.45;;;;;;;21.10;67.90;99521.20;1722103;81;20968;-79
2021/06/16 05:12:46;;;;;;;6.00;5.42;;;;;;;21.10;67.63;99516.33;1767854;81;21031;-79
2021/06/16 05:15:14;;;;;;;9.68;6.10;;;;;;;21.15;67.49;99519.70;1742073;81;20995;-78
2021/06/16 05:17:41;;;;;;;8.90;6.03;;;;;;;21.19;67.59;99519.33;1741673;81;21097;-79
2021/06/16 05:20:12;;;;;;;8.18;6.33;;;;;;;21.22;67.66;99528.80;1747966;81;21023;-78
2021/06/16 05:22:39;;;;;;;6.60;6.00;;;;;;;21.25;67.77;99526.21;1741279;81;20983;-81
2021/06/16 05:25:08;;;;;;;6.72;5.90;;;;;;;21.32;67.73;99535.31;1767651;81;21003;-79
2021/06/16 05:27:36;;;;;;;12.93;6.85;;;;;;;21.39;67.58;99534.23;1762908;81;21514;-79
2021/06/16 05:30:04;;;;;;;11.08;6.15;;;;;;;21.48;67.32;99535.61;1727514;83;21187;-79
2021/06/16 05:32:31;;;;;;;6.95;5.47;;;;;;;21.59;66.62;99539.02;1727598;81;21008;-80
2021/06/16 05:34:57;;;;;;;5.97;5.42;;;;;;;21.68;66.06;99536.25;1725497;81;21586;-79
2021/06/16 05:37:24;;;;;;;9.85;5.33;;;;;;;21.73;65.59;99528.67;1704705;81;20997;-80
2021/06/16 05:39:50;;;;;;;5.25;4.75;;;;;;;21.79;64.87;99532.03;1767247;81;20971;-79
2021/06/16 05:42:17;;;;;;;5.37;4.95;;;;;;;21.81;64.79;99542.67;1742181;81;21124;-79
2021/06/16 05:44:44;;;;;;;8.33;5.60;;;;;;;21.83;64.35;99543.13;1741838;81;21019;-80
2021/06/16 05:47:10;;;;;;;8.33;6.17;;;;;;;21.81;64.76;99550.32;1767701;81;20935;-80
2021/06/16 05:49:37;;;;;;;5.95;5.45;;;;;;;21.86;65.07;99546.03;1713185;82;21697;-77
2021/06/16 05:52:04;;;;;;;8.90;5.78;;;;;;;21.94;65.28;99545.78;1712621;82;21492;-77
2021/06/16 05:54:30;;;;;;;6.67;4.35;;;;;;;21.99;64.30;99551.89;1737245;82;21068;-76
2021/06/16 05:56:58;;;;;;;12.53;6.15;;;;;;;22.02;64.04;99546.30;1737285;82;20983;-77
2021/06/16 05:59:25;;;;;;;9.38;5.80;;;;;;;22.09;64.09;99554.83;1733861;81;20904;-78
2021/06/16 06:01:51;;;;;;;5.72;5.25;;;;;;;22.13;64.13;99556.58;1741292;81;20947;-78
2021/06/16 06:04:18;;;;;;;6.08;5.03;;;;;;;22.17;63.96;99558.89;1711005;82;21086;-76
2021/06/16 06:06:44;;;;;;;7.20;5.67;;;;;;;22.23;64.05;99566.36;1712602;83;21473;-77
2021/06/16 06:09:10;;;;;;;14.00;5.70;;;;;;;22.24;64.14;99563.05;1755001;81;21050;-78
2021/06/16 06:11:37;;;;;;;10.72;5.80;;;;;;;22.27;64.16;99565.94;1767460;81;21093;-77
2021/06/16 06:14:05;;;;;;;5.55;5.05;;;;;;;22.31;63.84;99566.87;1728009;81;21014;-77
2021/06/16 06:16:31;;;;;;;5.83;5.25;;;;;;;22.35;63.32;99568.41;1767947;81;21086;-78
2021/06/16 06:18:58;;;;;;;5.08;4.55;;;;;;;22.34;63.45;99574.45;1734320;81;21777;-80
2021/06/16 06:21:30;;;;;;;6.00;5.45;;;;;;;22.36;63.51;99575.47;1700607;82;20997;-77
2021/06/16 06:23:53;;;;;;;5.20;4.70;;;;;;;22.38;63.53;99578.14;1747856;81;21536;-77
2021/06/16 06:26:19;;;;;;;6.10;5.50;;;;;;;22.41;63.70;99576.09;1748026;82;21004;-80
2021/06/16 06:28:46;;;;;;;6.75;5.65;;;;;;;22.44;63.83;99580.13;1730628;82;21020;-77
2021/06/16 06:31:13;;;;;;;13.68;5.12;;;;;;;22.50;63.77;99585.06;1678846;84;21063;-78
2021/06/16 06:33:40;;;;;;;18.42;6.00;;;;;;;22.55;63.63;99581.33;1699011;84;21022;-75
2021/06/16 06:36:07;;;;;;;8.78;5.05;;;;;;;22.63;63.61;99584.61;1696452;84;21105;-75
2021/06/16 06:38:33;;;;;;;8.03;5.45;;;;;;;22.70;63.44;99572.56;1707605;83;21019;-77
2021/06/16 06:41:00;;;;;;;5.50;4.95;;;;;;;22.73;62.61;99575.22;1694047;83;21087;-75
2021/06/16 06:43:26;;;;;;;6.62;6.03;;;;;;;22.72;62.47;99578.53;1697834;83;20992;-77
2021/06/16 06:45:53;;;;;;;5.50;5.00;;;;;;;22.72;62.08;99574.98;1718205;83;20984;-75
2021/06/16 06:48:19;;;;;;;6.85;4.55;;;;;;;22.71;61.89;99578.28;1709936;83;21062;-76
2021/06/16 06:50:46;;;;;;;6.58;5.50;;;;;;;22.68;62.08;99580.30;1691599;84;20987;-80
2021/06/16 06:53:14;;;;;;;9.68;5.78;;;;;;;22.66;62.22;99581.75;1671918;84;21571;-78
2021/06/16 06:55:42;;;;;;;8.65;5.37;;;;;;;22.63;62.78;99581.06;1673205;83;21040;-78
2021/06/16 06:58:09;;;;;;;10.50;5.22;;;;;;;22.64;62.99;99579.34;1702126;82;20964;-79
2021/06/16 07:00:36;;;;;;;7.70;4.90;;;;;;;22.66;63.34;99579.82;1716860;82;20997;-79
2021/06/16 07:03:03;;;;;;;11.80;6.40;;;;;;;22.70;63.26;99586.80;1727185;82;20975;-78
2021/06/16 07:05:30;;;;;;;11.73;5.28;;;;;;;22.71;63.15;99572.80;1748289;82;21169;-78
2021/06/16 07:07:58;;;;;;;8.03;5.37;;;;;;;22.75;63.33;99576.48;1724478;82;21062;-78
2021/06/16 07:10:24;;;;;;;6.10;4.60;;;;;;;22.80;62.49;99575.48;1718217;83;20896;-79
2021/06/16 07:12:51;;;;;;;7.47;4.72;;;;;;;22.84;62.46;99579.16;1697700;83;21525;-78
2021/06/16 07:15:18;;;;;;;8.25;5.85;;;;;;;22.82;62.12;99576.77;1718046;82;20952;-78
2021/06/16 07:17:46;;;;;;;6.12;4.47;;;;;;;22.84;62.39;99577.22;1679789;84;21084;-77
2021/06/16 07:20:16;;;;;;;5.12;4.62;;;;;;;22.89;61.56;99580.33;1762340;81;21492;-77
2021/06/16 07:22:44;;;;;;;5.08;3.85;;;;;;;22.91;61.10;99571.21;1737378;82;20979;-79
2021/06/16 07:25:10;;;;;;;4.87;4.45;;;;;;;22.92;61.88;99570.89;1737899;81;21038;-79
2021/06/16 07:27:37;;;;;;;6.65;4.62;;;;;;;22.95;60.69;99566.09;1737345;82;21015;-80
2021/06/16 07:30:05;;;;;;;6.97;5.45;;;;;;;22.95;60.80;99569.41;1737296;82;20976;-80
2021/06/16 07:32:32;;;;;;;7.37;4.40;;;;;;;22.98;60.64;99572.84;1737305;82;21172;-79
2021/06/16 07:34:59;;;;;;;8.90;4.45;;;;;;;23.02;59.79;99579.28;1711549;82;21043;-78
2021/06/16 07:37:27;;;;;;;7.78;4.10;;;;;;;23.05;59.87;99585.46;1737044;82;21042;-79
2021/06/16 07:39:54;;;;;;;9.30;5.45;;;;;;;23.08;60.11;99577.92;1737069;81;21105;-79
2021/06/16 07:42:22;;;;;;;5.08;4.67;;;;;;;23.14;60.90;99577.96;1702410;83;21043;-78
2021/06/16 07:44:48;;;;;;;4.72;4.08;;;;;;;23.22;60.31;99578.45;1657704;83;22045;-80
2021/06/16 07:47:15;;;;;;;7.03;4.42;;;;;;;23.26;58.66;99584.86;1668415;83;21043;-79
2021/06/16 07:49:42;;;;;;;4.22;3.83;;;;;;;23.29;58.48;99582.03;1693199;82;21079;-79
2021/06/16 07:52:09;;;;;;;4.95;3.67;;;;;;;23.34;58.59;99575.77;1682962;85;21071;-79
2021/06/16 07:54:37;;;;;;;5.45;4.20;;;;;;;23.38;58.58;99578.06;1683117;85;20963;-79
2021/06/16 07:57:04;;;;;;;6.53;4.45;;;;;;;23.44;58.39;99580.88;1652552;85;21072;-79
2021/06/16 07:59:31;;;;;;;4.12;3.70;;;;;;;23.48;57.61;99576.06;1683332;85;20986;-79
2021/06/16 08:01:57;;;;;;;4.37;3.47;;;;;;;23.51;57.43;99580.88;1660309;83;21058;-80
2021/06/16 08:04:24;;;;;;;4.87;3.85;;;;;;;23.52;56.49;99581.11;1737533;82;20979;-77
2021/06/16 08:06:52;;;;;;;9.83;3.42;;;;;;;23.54;55.57;99582.39;1716166;81;20961;-79
2021/06/16 08:09:18;;;;;;;7.40;3.58;;;;;;;23.59;55.57;99586.87;1710593;82;21015;-80
2021/06/16 08:11:45;;;;;;;4.58;4.08;;;;;;;23.63;55.13;99580.36;1747443;81;21014;-80
2021/06/16 08:14:13;;;;;;;8.70;3.42;;;;;;;23.67;55.07;99581.28;1766750;81;20940;-81
2021/06/16 08:16:41;;;;;;;3.77;3.45;;;;;;;23.72;55.04;99581.63;1728914;82;21034;-80
2021/06/16 08:19:08;;;;;;;3.72;3.35;;;;;;;23.75;55.22;99577.62;1717964;82;21043;-80
2021/06/16 08:21:35;;;;;;;5.50;3.30;;;;;;;23.81;55.44;99588.64;1693232;84;21092;-77
2021/06/16 08:24:02;;;;;;;3.92;3.20;;;;;;;23.87;55.40;99580.98;1704907;83;21035;-79
2021/06/16 08:26:29;;;;;;;7.65;3.35;;;;;;;23.91;54.28;99581.91;1705412;83;20983;-78
2021/06/16 08:28:56;;;;;;;7.70;3.02;;;;;;;23.96;53.08;99583.63;1685055;84;21040;-79
2021/06/16 08:31:24;;;;;;;3.00;2.70;;;;;;;23.99;51.58;99580.98;1705596;83;21103;-77
2021/06/16 08:33:50;;;;;;;5.75;2.40;;;;;;;24.03;50.95;99579.16;1705516;83;21061;-80
2021/06/16 08:36:16;;;;;;;3.55;2.77;;;;;;;24.11;50.14;99582.39;1705426;83;21737;-79
2021/06/16 08:38:43;;;;;;;5.67;2.10;;;;;;;24.18;49.62;99585.39;1692095;84;21083;-78
2021/06/16 08:41:11;;;;;;;3.95;2.85;;;;;;;24.27;49.33;99590.20;1670283;84;21600;-80
2021/06/16 08:43:43;;;;;;;3.22;2.83;;;;;;;24.41;48.95;99585.77;1677940;84;21585;-81
2021/06/16 08:46:12;;;;;;;2.22;2.02;;;;;;;24.52;48.96;99584.13;1661089;85;21755;-79
2021/06/16 08:48:39;;;;;;;3.35;2.45;;;;;;;24.68;48.79;99589.17;1674365;84;21579;-81
2021/06/16 08:51:06;;;;;;;2.98;2.40;;;;;;;24.85;48.59;99592.22;1650014;85;21023;-77
2021/06/16 08:53:34;;;;;;;5.42;2.30;;;;;;;24.98;47.66;99583.41;1631452;86;21052;-77
2021/06/16 08:56:00;;;;;;;5.60;2.85;;;;;;;25.05;48.00;99586.36;1630294;86;21054;-79
2021/06/16 08:58:27;;;;;;;1.85;1.65;;;;;;;25.16;47.52;99588.28;1651427;86;21747;-78
2021/06/16 09:00:54;;;;;;;4.92;2.47;;;;;;;25.25;46.24;99580.44;1659019;84;20928;-79
2021/06/16 09:03:20;;;;;;;3.22;2.10;;;;;;;25.27;44.34;99588.59;1673965;84;21048;-77
2021/06/16 09:05:49;;;;;;;1.65;1.55;;;;;;;25.30;44.45;99587.89;1705755;83;21519;-78
2021/06/16 09:08:21;;;;;;;3.45;2.67;;;;;;;25.37;43.72;99594.18;1693469;84;21008;-79
2021/06/16 09:10:51;;;;;;;3.47;1.87;;;;;;;25.43;42.71;99599.07;1681243;84;21078;-79
2021/06/16 09:13:32;;;;;;;19.92;2.65;;;;;;;25.43;42.89;99599.07;1686180;84;21012;-78
2021/06/16 09:16:00;;;;;;;3.92;1.80;;;;;;;25.44;42.36;99601.25;1700341;83;21911;-77
2021/06/16 09:18:27;;;;;;;3.22;1.87;;;;;;;25.51;41.71;99602.27;1707206;83;21067;-78
2021/06/16 09:20:56;;;;;;;2.70;1.50;;;;;;;25.56;40.79;99602.62;1728917;82;21044;-79
2021/06/16 09:23:27;;;;;;;10.72;1.87;;;;;;;25.59;40.96;99605.46;1704729;82;21098;-74
2021/06/16 09:26:13;;;;;;;1.85;1.50;;;;;;;25.63;40.33;99593.16;1700581;83;21094;-79
2021/06/16 09:28:42;;;;;;;4.00;1.80;;;;;;;25.67;40.71;99594.05;1694679;83;21521;-72
2021/06/16 09:31:11;;;;;;;4.83;2.12;;;;;;;25.74;41.18;99597.58;1671900;83;20960;-75
2021/06/16 09:33:38;;;;;;;3.15;1.80;;;;;;;25.75;40.98;99594.48;1714618;83;21050;-72
2021/06/16 09:36:14;;;;;;;2.02;1.82;;;;;;;25.76;41.61;99601.57;1716171;83;21084;-73
2021/06/16 09:38:42;;;;;;;2.98;1.87;;;;;;;25.80;41.51;99601.69;1740363;82;21605;-71
2021/06/16 09:41:10;;;;;;;3.02;1.92;;;;;;;25.83;42.00;99613.37;1738591;82;21471;-72
2021/06/16 09:43:39;;;;;;;3.77;2.33;;;;;;;25.86;42.20;99600.25;1731050;82;21180;-71
2021/06/16 09:46:10;;;;;;;1.75;1.65;;;;;;;25.87;42.13;99596.34;1728420;82;21101;-73
2021/06/16 09:48:46;;;;;;;4.50;2.42;;;;;;;26.00;42.65;99590.97;1730156;82;21319;-71
2021/06/16 09:51:27;;;;;;;2.30;2.10;;;;;;;26.00;42.65;99590.97;1699544;82;21011;-72
2021/06/16 09:54:13;;;;;;;7.37;2.33;;;;;;;26.04;42.17;99578.88;1733806;82;21008;-72
2021/06/16 09:56:47;;;;;;;4.85;2.10;;;;;;;26.06;42.65;99581.30;1710826;82;21132;-81
2021/06/16 09:59:16;;;;;;;3.02;1.90;;;;;;;26.17;43.15;99596.16;1729190;82;21082;-78
2021/06/16 10:01:48;;;;;;;6.50;2.30;;;;;;;26.26;42.07;99593.24;1669292;82;21034;-81
2021/06/16 10:04:42;;;;;;;4.42;2.98;;;;;;;26.27;41.67;99594.27;1727101;82;20904;-73
2021/06/16 10:07:11;;;;;;;;;;;;;;;26.32;41.57;99591.83;1744379;82;21012;-79
2021/06/16 10:09:54;;;;;;;1.45;1.35;;;;;;;26.39;41.98;99585.08;1698845;82;20589;-74
2021/06/16 10:12:24;;;;;;;2.40;2.20;;;;;;;26.48;41.17;99587.88;1631621;86;21054;-80
2021/06/16 10:14:50;;;;;;;2.45;1.80;;;;;;;26.45;40.24;99594.70;1704526;83;22000;-77
2021/06/16 10:17:16;;;;;;;2.45;2.25;;;;;;;26.36;40.43;99583.86;1682283;84;21030;-84
2021/06/16 10:19:44;;;;;;;5.92;1.85;;;;;;;26.34;40.66;99582.02;1709925;82;21001;-83
2021/06/16 10:22:11;;;;;;;5.20;2.75;;;;;;;26.28;41.16;99585.42;1730138;82;21122;-84
2021/06/16 10:24:39;;;;;;;2.45;2.10;;;;;;;26.30;40.19;99585.84;1703038;83;21101;-84
2021/06/16 10:27:09;;;;;;;1.72;1.62;;;;;;;26.26;39.67;99584.97;1696733;83;21704;-82
2021/06/16 10:29:41;;;;;;;3.27;2.17;;;;;;;26.27;39.93;99572.21;1681757;84;20974;-75
2021/06/16 10:32:10;;;;;;;4.70;1.87;;;;;;;26.32;40.09;99578.03;1744491;81;21576;-76
2021/06/16 10:34:56;;;;;;;2.55;1.57;;;;;;;26.41;40.18;99568.98;1726075;81;20904;-78
2021/06/16 10:37:38;;;;;;;3.70;2.00;;;;;;;26.54;39.86;99569.67;1721507;81;21078;-82
2021/06/16 10:40:26;;;;;;;2.60;1.93;;;;;;;26.65;39.77;99566.01;1767299;81;21091;-79
2021/06/16 10:43:06;;;;;;;2.33;1.47;;;;;;;26.77;39.82;99570.59;1741629;81;21111;-76
2021/06/16 10:45:37;;;;;;;1.55;1.45;;;;;;;26.89;39.04;99572.69;1718950;82;21007;-76
2021/06/16 10:48:09;;;;;;;1.17;1.07;;;;;;;27.01;39.22;99568.98;1703057;84;21003;-74
2021/06/16 10:51:01;;;;;;;1.98;1.80;;;;;;;27.12;38.58;99568.63;1704666;84;21646;-82
2021/06/16 10:53:27;;;;;;;5.72;2.45;;;;;;;27.18;38.77;99576.05;1681681;81;21042;-76
2021/06/16 10:55:59;;;;;;;2.00;1.90;;;;;;;27.25;38.99;99572.03;1684090;82;20952;-81
2021/06/16 10:58:30;;;;;;;6.70;2.27;;;;;;;27.22;38.41;99572.20;1739127;81;21002;-75
2021/06/16 11:01:15;;;;;;;4.25;2.05;;;;;;;27.20;38.35;99565.42;1741682;81;21004;-74
2021/06/16 11:03:53;;;;;;;1.85;1.55;;;;;;;27.14;37.69;99568.28;1768108;81;21082;-76
2021/06/16 11:06:39;;;;;;;2.37;1.70;;;;;;;27.13;37.74;99568.05;1718071;82;21058;-77
2021/06/16 11:09:10;;;;;;;4.72;2.45;;;;;;;27.17;38.44;99569.72;1743994;81;20935;-75
2021/06/16 11:12:03;;;;;;;3.55;1.55;;;;;;;27.30;37.87;99567.59;1703843;82;21483;-85
2021/06/16 11:14:42;;;;;;;2.05;1.42;;;;;;;27.36;37.26;99564.77;1739669;81;21531;-76
2021/06/16 11:17:10;;;;;;;2.83;1.70;;;;;;;27.33;37.96;99573.80;1737652;81;21034;-76
2021/06/16 11:19:40;;;;;;;2.47;1.82;;;;;;;27.36;37.90;99572.25;1721161;82;20971;-72
2021/06/16 11:22:18;;;;;;;1.55;1.45;;;;;;;27.47;38.04;99572.69;1705546;84;21036;-79
2021/06/16 11:25:28;;;;;;;3.00;1.60;;;;;;;27.52;37.21;99565.52;1693137;84;21067;-83
2021/06/16 11:28:08;;;;;;;7.37;2.15;;;;;;;27.53;37.23;99565.71;1701982;83;21064;-72
2021/06/16 11:30:59;;;;;;;1.95;1.72;;;;;;;27.46;37.25;99557.85;1704865;83;21079;-83
2021/06/16 11:33:36;;;;;;;1.92;1.72;;;;;;;27.39;37.35;99578.42;1662863;86;21551;-81
2021/06/16 11:36:13;;;;;;;10.20;1.72;;;;;;;27.42;37.17;99575.75;1689926;84;20944;-83
2021/06/16 11:38:44;;;;;;;2.30;2.10;;;;;;;27.55;36.81;99564.78;1683340;84;21544;-78
2021/06/16 11:41:20;;;;;;;1.22;1.12;;;;;;;27.65;36.72;99571.09;1705009;84;21567;-78
2021/06/16 11:44:00;;;;;;;3.45;1.40;;;;;;;27.72;35.57;99570.43;1687989;84;21066;-79